Time;durP1;ratioP1;P1;durP2;ratioP2;P2;SDS_P1;SDS_P2;PMS_P1;PMS_P2;Temp;Humidity;BMP_temperature;BMP_pressure;BME280_temperature;BME280_humidity;BME280_pressure;Samples;Min_cycle;Max_cycle;Signal;HPM_P1;HPM_P2
2023/10/21 00:01:40;;;;;;;26.50;17.30;;;7.10;99.90;;;;;;6258491;23;20409;-92
2023/10/21 00:04:07;;;;;;;28.55;16.80;;;7.00;99.90;;;;;;6245281;23;20201;-92
2023/10/21 00:06:34;;;;;;;30.88;17.17;;;7.10;99.90;;;;;;6245894;23;20178;-92
2023/10/21 00:09:16;;;;;;;25.95;17.42;;;7.00;99.90;;;;;;6251381;22;20181;-92
2023/10/21 00:11:54;;;;;;;30.63;17.42;;;6.50;99.90;;;;;;6248717;22;20660;-92
2023/10/21 00:14:36;;;;;;;38.10;18.75;;;7.00;99.90;;;;;;6246964;22;20565;-92
2023/10/21 00:17:13;;;;;;;29.55;18.70;;;7.30;99.90;;;;;;6246411;22;20497;-92
2023/10/21 00:19:56;;;;;;;28.70;16.70;;;7.00;99.90;;;;;;6246794;22;20265;-92
2023/10/21 00:22:27;;;;;;;34.78;16.65;;;7.10;99.90;;;;;;6248680;23;20395;-92
2023/10/21 00:25:04;;;;;;;33.92;16.88;;;6.90;99.90;;;;;;6246446;22;20220;-92
2023/10/21 00:27:44;;;;;;;29.87;18.70;;;;;;;;;;6247569;23;20170;-92
2023/10/21 00:33:14;;;;;;;29.63;17.57;;;;;;;;;;6265696;22;20201;-92
2023/10/21 00:35:44;;;;;;;31.20;18.90;;;7.10;99.90;;;;;;6261231;23;20385;-93
2023/10/21 00:38:29;;;;;;;32.83;18.25;;;7.10;99.90;;;;;;6266929;22;20185;-92
2023/10/21 00:41:19;;;;;;;34.05;17.25;;;7.10;99.90;;;;;;6264431;22;20166;-92
2023/10/21 00:43:46;;;;;;;33.03;18.90;;;;;;;;;;6270624;22;20212;-92
2023/10/21 00:46:18;;;;;;;33.83;18.43;;;7.10;99.90;;;;;;6255723;23;20174;-93
2023/10/21 00:48:53;;;;;;;32.70;18.80;;;7.20;99.90;;;;;;6254474;23;20424;-93
2023/10/21 00:51:23;;;;;;;33.55;19.27;;;;;;;;;;6254835;23;20385;-93
2023/10/21 00:53:53;;;;;;;32.20;19.00;;;7.10;99.90;;;;;;6258566;23;20273;-93
2023/10/21 00:56:33;;;;;;;33.23;19.60;;;7.10;99.90;;;;;;6252735;22;20488;-93
2023/10/21 00:59:15;;;;;;;35.65;20.23;;;7.10;99.90;;;;;;6259343;22;20401;-92
2023/10/21 01:01:57;;;;;;;31.70;20.55;;;7.00;99.90;;;;;;6253153;23;20239;-92
2023/10/21 01:04:32;;;;;;;35.67;20.50;;;7.10;99.90;;;;;;6259305;22;20246;-93
2023/10/21 01:07:08;;;;;;;38.63;20.80;;;7.00;99.90;;;;;;6270772;22;20162;-93
2023/10/21 01:09:39;;;;;;;33.47;19.52;;;;;;;;;;6267931;22;20228;-93
2023/10/21 01:12:15;;;;;;;35.70;19.77;;;6.80;99.90;;;;;;6259099;22;20155;-93
2023/10/21 01:14:48;;;;;;;38.88;20.80;;;7.10;99.90;;;;;;6270957;22;20174;-93
2023/10/21 01:17:24;;;;;;;36.67;19.00;;;;;;;;;;6266072;22;20177;-93
2023/10/21 01:19:51;;;;;;;35.67;20.13;;;;;;;;;;6246503;23;20174;-93
2023/10/21 01:22:24;;;;;;;37.63;20.13;;;7.20;99.90;;;;;;6245954;23;20413;-93
2023/10/21 01:24:56;;;;;;;44.55;20.88;;;7.20;99.90;;;;;;6245169;23;20528;-92
2023/10/21 01:27:35;;;;;;;36.57;20.27;;;7.20;99.90;;;;;;6245956;23;20245;-92
2023/10/21 01:30:09;;;;;;;35.38;19.15;;;;;;;;;;6245270;23;20398;-93
2023/10/21 01:32:40;;;;;;;41.05;22.05;;;;;;;;;;6245041;23;20607;-93
2023/10/21 01:35:23;;;;;;;45.95;22.00;;;7.50;99.90;;;;;;6246079;23;20211;-92
2023/10/21 01:37:58;;;;;;;35.40;21.42;;;;;;;;;;6248124;22;20174;-92
2023/10/21 01:40:34;;;;;;;36.33;20.80;;;7.30;99.90;;;;;;6246519;22;20181;-93
2023/10/21 01:43:11;;;;;;;36.65;19.83;;;7.30;99.90;;;;;;6246475;22;20675;-93
2023/10/21 01:45:40;;;;;;;39.63;21.30;;;;;;;;;;6245694;23;20239;-93
2023/10/21 01:51:12;;;;;;;41.27;22.70;;;7.30;99.90;;;;;;6251752;23;20689;-93
2023/10/21 01:53:48;;;;;;;31.25;20.90;;;;;;;;;;6261416;23;20425;-92
2023/10/21 01:56:30;;;;;;;44.45;20.00;;;7.80;99.90;;;;;;6260872;23;20155;-92
2023/10/21 01:59:22;;;;;;;51.80;22.30;;;7.40;99.90;;;;;;6268399;22;20158;-94
2023/10/21 02:02:02;;;;;;;41.13;22.33;;;7.40;99.90;;;;;;6270472;22;20382;-94
2023/10/21 02:04:33;;;;;;;36.80;20.67;;;7.30;99.90;;;;;;6270553;22;20206;-93
2023/10/21 02:07:04;;;;;;;36.92;20.83;;;;;;;;;;6268402;23;20166;-92
2023/10/21 02:09:31;;;;;;;40.93;24.20;;;;;;;;;;6251822;23;20174;-92
2023/10/21 02:12:41;;;;;;;44.65;23.00;;;7.50;99.90;;;;;;6246730;23;20389;-93
2023/10/21 02:15:31;;;;;;;40.13;24.92;;;7.50;99.90;;;;;;6246629;23;20171;-92
2023/10/21 02:18:04;;;;;;;39.67;22.33;;;7.40;99.90;;;;;;6245064;22;20540;-92
2023/10/21 02:20:42;;;;;;;38.92;22.10;;;7.40;99.90;;;;;;6244621;23;20166;-92
2023/10/21 02:23:17;;;;;;;43.93;21.07;;;;;;;;;;6244477;23;20248;-92
2023/10/21 02:26:03;;;;;;;44.53;23.50;;;7.40;99.90;;;;;;6245590;23;20429;-93
2023/10/21 02:28:41;;;;;;;46.47;22.25;;;7.40;99.90;;;;;;6254712;23;20370;-92
2023/10/21 02:31:09;;;;;;;45.80;22.03;;;;;;;;;;6252833;22;20593;-92
2023/10/21 02:33:47;;;;;;;41.85;22.23;;;7.30;99.90;;;;;;6257416;23;20413;-92
2023/10/21 02:36:27;;;;;;;38.90;21.93;;;7.40;99.90;;;;;;6256739;23;20182;-92
2023/10/21 02:38:56;;;;;;;36.47;20.85;;;;;;;;;;6258831;22;20461;-92
2023/10/21 02:41:26;;;;;;;37.47;19.93;;;;;;;;;;6267079;22;20223;-92
2023/10/21 02:44:10;;;;;;;36.47;22.10;;;7.40;99.90;;;;;;6252359;23;20429;-92
2023/10/21 02:46:52;;;;;;;40.97;20.57;;;7.40;99.90;;;;;;6258127;23;20390;-92
2023/10/21 02:49:48;;;;;;;33.77;21.00;;;7.40;99.90;;;;;;6261967;22;20439;-92
2023/10/21 02:52:30;;;;;;;38.75;22.15;;;7.50;99.90;;;;;;6260771;23;20410;-92
2023/10/21 02:55:06;;;;;;;37.33;22.43;;;;;;;;;;6270316;22;20196;-93
2023/10/21 02:57:49;;;;;;;46.53;22.83;;;7.50;99.90;;;;;;6260279;22;20419;-92
2023/10/21 03:03:42;;;;;;;41.23;24.80;;;7.50;99.90;;;;;;6266650;22;20166;-93
2023/10/21 03:09:08;;;;;;;40.30;20.90;;;7.50;99.90;;;;;;6268490;22;20474;-93
2023/10/21 03:11:59;;;;;;;;;;;;;;;;;;;;;
2023/10/21 03:14:35;;;;;;;48.60;23.40;;;;;;;;;;6249674;22;20453;-93
2023/10/21 03:17:27;;;;;;;37.67;22.80;;;7.60;99.90;;;;;;6246912;23;20425;-93
2023/10/21 03:20:00;;;;;;;45.50;22.33;;;;;;;;;;6247499;23;20493;-93
2023/10/21 03:22:32;;;;;;;40.20;20.13;;;7.50;99.90;;;;;;6247114;23;20425;-92
2023/10/21 03:25:00;;;;;;;43.88;23.05;;;;;;;;;;6246335;23;20441;-92
2023/10/21 03:27:37;;;;;;;46.60;22.20;;;7.60;99.90;;;;;;6245920;23;20171;-92
2023/10/21 03:30:08;;;;;;;41.35;20.48;;;7.60;99.90;;;;;;6245624;23;20716;-92
2023/10/21 03:32:39;;;;;;;36.80;21.80;;;7.60;99.90;;;;;;6247731;23;20202;-93
2023/10/21 03:35:08;;;;;;;56.10;22.90;;;8.00;99.90;;;;;;6244954;23;20161;-92
2023/10/21 03:40:27;;;;;;;45.85;24.08;;;7.80;99.90;;;;;;6194194;22;20453;-92
2023/10/21 03:42:54;;;;;;;40.83;22.73;;;;;;;;;;6220065;23;20168;-93
2023/10/21 03:45:24;;;;;;;46.60;23.00;;;;;;;;;;6252416;23;20448;-91
2023/10/21 03:48:07;;;;;;;58.00;21.57;;;7.40;99.90;;;;;;6268766;22;20427;-91
2023/10/21 03:50:34;;;;;;;54.17;22.87;;;;;;;;;;6268642;22;20374;-91
2023/10/21 03:53:46;;;;;;;51.03;22.60;;;7.60;99.90;;;;;;6209839;23;20510;-93
2023/10/21 03:56:58;;;;;;;40.40;21.13;;;7.60;99.90;;;;;;6135267;22;20507;-92
2023/10/21 04:07:16;;;;;;;41.35;22.42;;;7.60;99.90;;;;;;6253792;23;20440;-93
2023/10/21 04:10:27;;;;;;;49.35;23.10;;;7.60;99.90;;;;;;6270738;22;20165;-91
2023/10/21 04:39:16;;;;;;;49.53;22.10;;;7.70;99.90;;;;;;6253140;22;20562;-93
2023/10/21 04:42:46;;;;;;;49.70;22.57;;;7.70;99.90;;;;;;6265983;22;20439;-93
2023/10/21 04:45:48;;;;;;;56.05;22.63;;;7.60;99.90;;;;;;6260500;22;20443;-92
2023/10/21 04:48:37;;;;;;;39.28;22.15;;;7.60;99.90;;;;;;6270506;22;20165;-91
2023/10/21 04:51:30;;;;;;;51.20;22.80;;;7.60;99.90;;;;;;6264263;22;20170;-92
2023/10/21 04:56:53;;;;;;;39.23;22.17;;;7.70;99.90;;;;;;6269180;22;20413;-91
2023/10/21 05:09:14;;;;;;;;;;;;;;;;;;;;;
2023/10/21 05:21:46;;;;;;;82.90;25.00;;;;;;;;;;6203663;23;20890;-91
2023/10/21 05:24:14;;;;;;;54.50;23.30;;;7.70;99.90;;;;;;6217928;23;20402;-91
2023/10/21 05:26:44;;;;;;;38.77;21.23;;;;;;;;;;6239063;22;20449;-93
2023/10/21 05:29:14;;;;;;;48.37;23.57;;;;;;;;;;6219878;22;20407;-92
2023/10/21 05:31:41;;;;;;;42.60;21.77;;;;;;;;;;6241688;23;20447;-92
2023/10/21 05:34:17;;;;;;;48.50;24.90;;;7.70;99.90;;;;;;6250124;23;20767;-91
2023/10/21 05:36:56;;;;;;;46.85;24.08;;;7.60;99.90;;;;;;6271125;22;20390;-91
2023/10/21 05:39:32;;;;;;;51.00;23.70;;;7.70;99.90;;;;;;6268695;22;20146;-91
2023/10/21 05:42:09;;;;;;;43.87;22.60;;;7.70;99.90;;;;;;6270136;22;20417;-92
2023/10/21 05:44:39;;;;;;;37.50;21.40;;;6.90;99.90;;;;;;6270633;22;20419;-91
2023/10/21 05:47:09;;;;;;;39.60;24.70;;;7.70;99.90;;;;;;6269920;22;20403;-91
2023/10/21 05:49:39;;;;;;;41.80;23.80;;;;;;;;;;6263766;22;20425;-92
2023/10/21 05:52:09;;;;;;;55.83;21.80;;;;;;;;;;6249863;23;20425;-92
2023/10/21 05:54:40;;;;;;;42.60;22.90;;;7.70;99.90;;;;;;6251132;23;20451;-91
2023/10/21 05:57:09;;;;;;;43.87;21.97;;;7.70;99.90;;;;;;6249285;23;20462;-92
2023/10/21 05:59:37;;;;;;;40.83;20.93;;;;;;;;;;6247858;22;20786;-92
2023/10/21 06:02:05;;;;;;;59.87;23.27;;;;;;;;;;6245402;23;20417;-91
2023/10/21 06:04:32;;;;;;;41.17;21.53;;;8.00;99.90;;;;;;6245888;23;20769;-92
2023/10/21 06:07:02;;;;;;;38.03;20.40;;;;;;;;;;6246160;23;20433;-91
2023/10/21 06:09:29;;;;;;;54.27;20.80;;;;;;;;;;6245678;23;20388;-91
2023/10/21 06:12:00;;;;;;;46.00;22.47;;;7.80;99.90;;;;;;6246115;23;20437;-91
2023/10/21 06:14:28;;;;;;;44.60;23.07;;;;;;;;;;6251179;22;20325;-91
2023/10/21 06:16:58;;;;;;;40.67;22.47;;;7.80;99.90;;;;;;6270494;22;20423;-91
2023/10/21 06:19:33;;;;;;;56.97;22.87;;;7.80;99.90;;;;;;6270285;22;20461;-91
2023/10/21 06:22:06;;;;;;;38.10;20.60;;;7.80;99.90;;;;;;6270231;22;20401;-91
2023/10/21 06:24:36;;;;;;;41.93;19.00;;;7.70;99.90;;;;;;6270529;22;20374;-91
2023/10/21 06:27:14;;;;;;;55.67;21.13;;;7.80;99.90;;;;;;6268913;22;20508;-92
2023/10/21 06:29:43;;;;;;;42.50;20.17;;;;;;;;;;6267765;23;20412;-93
2023/10/21 06:32:11;;;;;;;36.63;21.07;;;;;;;;;;6255957;23;20393;-93
2023/10/21 06:35:08;;;;;;;47.30;21.17;;;7.80;99.90;;;;;;6248165;23;20459;-93
2023/10/21 06:37:37;;;;;;;38.50;20.80;;;;;;;;;;6246358;22;20429;-93
2023/10/21 06:40:06;;;;;;;39.07;21.27;;;7.90;99.90;;;;;;6246584;23;20768;-92
2023/10/21 06:42:42;;;;;;;43.97;20.97;;;7.90;99.90;;;;;;6252305;23;20438;-92
2023/10/21 06:45:18;;;;;;;41.80;20.70;;;7.90;99.90;;;;;;6264971;22;20867;-92
2023/10/21 06:47:47;;;;;;;31.43;18.27;;;7.70;99.90;;;;;;6258222;23;20404;-92
2023/10/21 06:50:20;;;;;;;39.30;19.20;;;7.80;99.90;;;;;;6250682;23;20794;-92
2023/10/21 06:52:56;;;;;;;38.93;20.13;;;7.80;99.90;;;;;;6252935;23;20406;-92
2023/10/21 06:55:27;;;;;;;40.13;19.17;;;7.90;99.90;;;;;;6253941;23;20443;-91
2023/10/21 06:57:59;;;;;;;35.20;19.50;;;8.00;99.90;;;;;;6263864;23;20398;-91
2023/10/21 07:00:38;;;;;;;38.10;19.10;;;8.00;99.90;;;;;;6268309;22;20437;-92
2023/10/21 07:03:10;;;;;;;35.80;20.20;;;;;;;;;;6266157;22;20398;-91
2023/10/21 07:05:37;;;;;;;39.60;19.97;;;;;;;;;;6268820;22;20441;-91
2023/10/21 07:08:14;;;;;;;37.40;20.80;;;8.10;99.90;;;;;;6268377;23;20410;-91
2023/10/21 07:10:43;;;;;;;37.53;19.60;;;8.10;99.90;;;;;;6269974;22;20427;-91
2023/10/21 07:13:23;;;;;;;39.40;19.47;;;8.10;99.90;;;;;;6269438;22;20456;-91
2023/10/21 07:15:51;;;;;;;32.13;19.73;;;;;;;;;;6269244;22;20416;-92
2023/10/21 07:18:25;;;;;;;37.60;21.67;;;8.20;99.90;;;;;;6262914;23;20408;-91
2023/10/21 07:20:59;;;;;;;36.60;19.83;;;8.20;99.90;;;;;;6265588;22;20471;-92
2023/10/21 07:23:26;;;;;;;35.97;18.70;;;;;;;;;;6267266;23;20397;-91
2023/10/21 07:25:54;;;;;;;27.67;18.30;;;;;;;;;;6267613;22;20432;-92
2023/10/21 07:28:31;;;;;;;29.77;17.90;;;8.30;99.90;;;;;;6263748;23;20401;-92
2023/10/21 07:31:00;;;;;;;32.80;19.10;;;;;;;;;;6252120;23;20412;-92
2023/10/21 07:33:28;;;;;;;36.27;20.97;;;;;;;;;;6250422;23;20473;-92
2023/10/21 07:35:55;;;;;;;35.40;19.00;;;;;;;;;;6258003;23;20462;-92
2023/10/21 07:38:27;;;;;;;28.40;18.60;;;8.40;99.90;;;;;;6255939;23;20414;-93
2023/10/21 07:40:56;;;;;;;28.40;18.23;;;;;;;;;;6259275;23;20412;-92
2023/10/21 07:43:31;;;;;;;28.93;18.10;;;8.40;99.90;;;;;;6260717;23;20421;-92
2023/10/21 07:46:08;;;;;;;31.77;19.07;;;8.40;99.90;;;;;;6264609;22;20424;-92
2023/10/21 07:48:46;;;;;;;29.30;18.37;;;8.50;99.90;;;;;;6268408;22;20392;-92
2023/10/21 07:51:25;;;;;;;26.47;16.07;;;8.50;99.90;;;;;;6264676;23;20433;-93
2023/10/21 07:53:53;;;;;;;35.10;19.20;;;;;;;;;;6267067;22;20408;-92
2023/10/21 07:56:23;;;;;;;27.03;18.37;;;;;;;;;;6264217;22;20421;-91
2023/10/21 07:59:14;;;;;;;28.07;18.90;;;8.60;99.90;;;;;;6258410;23;20885;-91
2023/10/21 08:01:45;;;;;;;29.90;17.80;;;;;;;;;;6267252;22;20481;-92
2023/10/21 08:04:21;;;;;;;26.23;18.73;;;8.70;99.90;;;;;;6270002;22;20400;-91
2023/10/21 08:06:53;;;;;;;21.47;15.47;;;8.80;99.90;;;;;;6269854;22;20420;-91
2023/10/21 08:09:37;;;;;;;25.90;18.10;;;8.80;99.90;;;;;;6269396;22;20405;-92
2023/10/21 08:12:08;;;;;;;49.70;34.30;;;;;;;;;;6268383;22;20413;-92
2023/10/21 08:14:42;;;;;;;50.80;39.33;;;8.90;99.90;;;;;;6269084;22;20390;-92
2023/10/21 08:17:12;;;;;;;29.67;20.17;;;8.90;99.90;;;;;;6259549;22;20425;-92
2023/10/21 08:19:41;;;;;;;26.70;18.90;;;9.10;99.90;;;;;;6265991;22;20398;-92
2023/10/21 08:22:12;;;;;;;27.10;16.27;;;9.00;99.90;;;;;;6255740;22;20427;-91
2023/10/21 08:24:53;;;;;;;28.03;19.60;;;9.10;99.90;;;;;;6248581;23;20409;-92
2023/10/21 08:27:24;;;;;;;28.60;17.60;;;;;;;;;;6251292;23;20452;-92
2023/10/21 08:30:03;;;;;;;25.83;18.10;;;9.50;99.90;;;;;;6263450;23;20360;-91
2023/10/21 08:32:31;;;;;;;30.23;21.13;;;;;;;;;;6263941;23;20401;-93
2023/10/21 08:35:03;;;;;;;22.70;17.80;;;9.60;99.90;;;;;;6264075;23;20406;-93
2023/10/21 08:37:45;;;;;;;23.23;17.40;;;9.40;99.90;;;;;;6265179;23;20397;-93
2023/10/21 08:40:13;;;;;;;23.57;17.23;;;10.10;99.90;;;;;;6265482;23;20417;-93
2023/10/21 08:42:51;;;;;;;23.37;17.90;;;9.60;99.90;;;;;;6259016;23;20409;-92
2023/10/21 08:45:30;;;;;;;24.87;18.50;;;9.60;99.90;;;;;;6258910;23;20370;-93
2023/10/21 08:48:25;;;;;;;22.97;16.53;;;9.80;99.90;;;;;;6257140;23;20710;-93
2023/10/21 08:50:53;;;;;;;24.10;15.50;;;;;;;;;;6256307;23;20432;-93
2023/10/21 08:53:26;;;;;;;24.77;17.17;;;9.90;99.90;;;;;;6260674;23;20390;-92
2023/10/21 08:55:53;;;;;;;21.27;16.13;;;;;;;;;;6259326;23;20398;-92
2023/10/21 08:58:34;;;;;;;22.60;17.07;;;10.00;99.90;;;;;;6252754;23;20414;-92
2023/10/21 09:01:14;;;;;;;21.20;14.77;;;10.10;99.90;;;;;;6251448;22;20811;-93
2023/10/21 09:03:42;;;;;;;20.57;14.67;;;;;;;;;;6256141;23;20377;-93
2023/10/21 09:06:13;;;;;;;26.90;16.37;;;10.40;99.90;;;;;;6262104;23;20449;-93
2023/10/21 09:09:00;;;;;;;20.10;15.63;;;10.60;99.90;;;;;;6269815;22;20409;-93
2023/10/21 09:11:45;;;;;;;22.03;16.07;;;10.60;99.90;;;;;;6265145;22;20511;-92
2023/10/21 09:14:21;;;;;;;20.33;14.93;;;10.70;99.90;;;;;;6255231;23;20402;-93
2023/10/21 09:17:04;;;;;;;20.33;16.90;;;10.80;99.90;;;;;;6250369;22;20468;-93
2023/10/21 09:19:42;;;;;;;17.93;13.77;;;10.80;99.90;;;;;;6252026;23;20394;-93
2023/10/21 09:22:53;;;;;;;19.00;14.97;;;11.00;99.90;;;;;;6260970;23;20393;-92
2023/10/21 09:25:59;;;;;;;19.67;14.57;;;11.10;99.90;;;;;;6235054;23;20425;-92
2023/10/21 09:28:56;;;;;;;18.83;13.20;;;11.10;99.90;;;;;;6248936;23;20751;-93
2023/10/21 09:34:45;;;;;;;21.03;14.33;;;11.40;99.90;;;;;;6251235;23;20415;-92
2023/10/21 09:40:16;;;;;;;15.77;12.77;;;11.50;99.90;;;;;;6248408;23;20520;-92
2023/10/21 09:42:58;;;;;;;14.00;12.60;;;11.50;99.90;;;;;;6253402;23;20401;-92
2023/10/21 09:45:44;;;;;;;17.80;13.67;;;11.60;99.90;;;;;;6254206;23;20411;-92
2023/10/21 09:48:30;;;;;;;13.63;12.13;;;11.70;99.90;;;;;;6261338;22;20425;-92
2023/10/21 09:51:34;;;;;;;13.47;11.30;;;11.70;99.90;;;;;;6269358;22;20433;-93
2023/10/21 09:54:35;;;;;;;12.33;11.10;;;11.60;99.90;;;;;;6263490;22;20393;-92
2023/10/21 09:57:17;;;;;;;18.63;15.07;;;11.70;99.90;;;;;;6147804;22;20420;-92
2023/10/21 09:59:56;;;;;;;15.90;13.77;;;11.80;99.90;;;;;;6268804;22;20389;-93
2023/10/21 10:02:37;;;;;;;13.90;12.30;;;11.90;99.90;;;;;;6249522;23;20416;-94
2023/10/21 10:08:16;;;;;;;11.60;10.13;;;12.00;99.90;;;;;;6215125;23;20454;-94
2023/10/21 10:10:59;;;;;;;11.77;10.53;;;12.20;99.90;;;;;;6216665;22;20510;-94
2023/10/21 10:13:34;;;;;;;16.60;11.63;;;12.20;99.90;;;;;;6249196;23;20433;-93
2023/10/21 10:16:25;;;;;;;12.30;9.20;;;12.30;99.90;;;;;;6253129;22;20389;-94
2023/10/21 10:25:40;;;;;;;10.67;9.60;;;12.70;99.90;;;;;;6263912;22;20474;-93
2023/10/21 10:28:38;;;;;;;10.90;9.80;;;12.80;99.90;;;;;;6257760;23;20429;-94
2023/10/21 10:34:23;;;;;;;13.00;10.47;;;13.10;99.90;;;;;;6251291;23;20424;-94
2023/10/21 10:36:55;;;;;;;9.57;7.70;;;;;;;;;;6269116;22;20408;-93
2023/10/21 10:39:56;;;;;;;8.47;7.57;;;13.40;99.90;;;;;;6269940;22;20461;-94
2023/10/21 10:43:15;;;;;;;9.27;8.33;;;13.60;99.90;;;;;;6231437;22;20441;-93
2023/10/21 10:46:42;;;;;;;8.77;7.87;;;13.70;99.90;;;;;;6213754;22;20435;-92
2023/10/21 15:44:42;;;;;;;4.67;3.87;;;15.30;2.70;;;;;;6186841;23;20423;-88
2023/10/21 15:47:09;;;;;;;9.00;5.03;;;15.20;1.00;;;;;;6239057;22;20470;-89
2023/10/21 15:49:36;;;;;;;10.27;7.33;;;15.20;11.00;;;;;;6239114;22;20386;-88
2023/10/21 15:52:04;;;;;;;12.50;7.80;;;15.20;1.00;;;;;;6235959;22;20395;-89
2023/10/21 15:54:31;;;;;;;9.23;8.03;;;15.10;1.00;;;;;;6241687;23;20429;-89
2023/10/21 15:56:58;;;;;;;10.20;7.20;;;15.00;1.00;;;;;;6251445;23;20480;-90
2023/10/21 19:04:04;;;;;;;22.80;17.10;;;11.90;99.90;;;;;;6199895;23;20454;-89
2023/10/21 19:06:31;;;;;;;24.00;19.13;;;11.90;99.90;;;;;;6221729;23;20411;-89
2023/10/21 19:08:59;;;;;;;18.60;14.13;;;11.70;99.90;;;;;;6224471;23;20804;-89
2023/10/21 19:11:26;;;;;;;17.40;14.00;;;11.90;99.90;;;;;;6221852;23;20410;-89
2023/10/21 19:13:53;;;;;;;16.87;13.50;;;11.80;99.90;;;;;;6248167;22;20488;-90
2023/10/21 20:18:35;;;;;;;23.60;16.60;;;11.10;99.90;;;;;;6211001;22;20396;-91
2023/10/21 20:21:03;;;;;;;20.30;15.10;;;;;;;;;;6226631;23;20393;-89
2023/10/21 20:23:30;;;;;;;19.40;16.23;;;10.90;99.90;;;;;;6225015;23;20399;-89
2023/10/21 20:26:00;;;;;;;16.47;14.00;;;10.90;99.90;;;;;;6226221;23;20409;-89
2023/10/21 20:28:27;;;;;;;16.97;13.27;;;10.70;99.90;;;;;;6257566;23;20444;-91
2023/10/21 20:30:58;;;;;;;18.50;13.33;;;11.90;99.90;;;;;;6266803;23;20433;-90
2023/10/21 23:07:44;;;;;;;;;;;;;;;;;;;;;
2023/10/21 23:28:10;;;;;;;42.37;31.30;;;11.30;99.90;;;;;;6125925;23;20437;-94
2023/10/21 23:42:22;;;;;;;24.97;22.30;;;11.50;99.90;;;;;;6240168;23;20412;-93
